createdAt,value
2018-02-13T00:00:31.997Z,1004.34
2018-02-13T00:01:32.013Z,1004.33
2018-02-13T00:02:32.017Z,1004.38
2018-02-13T00:03:32.027Z,1004.34
2018-02-13T00:04:32.038Z,1004.37
2018-02-13T00:05:32.048Z,1004.4
2018-02-13T00:06:32.058Z,1004.4
2018-02-13T00:07:32.070Z,1004.39
2018-02-13T00:08:32.079Z,1004.43
2018-02-13T00:09:32.095Z,1004.43
2018-02-13T00:10:32.099Z,1004.43
2018-02-13T00:11:32.153Z,1004.48
2018-02-13T00:12:32.122Z,1004.46
2018-02-13T00:13:32.130Z,1004.5
2018-02-13T00:14:32.140Z,1004.49
2018-02-13T00:15:32.150Z,1004.5
2018-02-13T00:16:32.163Z,1004.52
2018-02-13T00:17:32.170Z,1004.53
2018-02-13T00:18:32.183Z,1004.57
2018-02-13T00:19:32.191Z,1004.54
2018-02-13T00:20:32.201Z,1004.56
2018-02-13T00:21:32.213Z,1004.57
2018-02-13T00:22:32.227Z,1004.6
2018-02-13T00:23:32.231Z,1004.58
2018-02-13T00:24:32.241Z,1004.62
2018-02-13T00:25:32.252Z,1004.55
2018-02-13T00:26:32.263Z,1004.57
2018-02-13T00:27:32.273Z,1004.57
2018-02-13T00:28:32.285Z,1004.61
2018-02-13T00:29:32.294Z,1004.6
2018-02-13T00:30:32.304Z,1004.63
2018-02-13T00:31:32.319Z,1004.61
2018-02-13T00:32:32.322Z,1004.61
2018-02-13T00:33:32.334Z,1004.63
2018-02-13T00:34:32.344Z,1004.62
2018-02-13T00:35:32.353Z,1004.62
2018-02-13T00:36:32.366Z,1004.64
2018-02-13T00:37:32.374Z,1004.64
2018-02-13T00:38:32.385Z,1004.55
2018-02-13T00:39:32.394Z,1004.62
2018-02-13T00:40:32.416Z,1004.59
2018-02-13T00:41:32.418Z,1004.62
2018-02-13T00:42:32.476Z,1004.63
2018-02-13T00:43:32.435Z,1004.62
2018-02-13T00:44:32.445Z,1004.6
2018-02-13T00:45:32.457Z,1004.62
2018-02-13T00:46:32.466Z,1004.63
2018-02-13T00:47:32.477Z,1004.62
2018-02-13T00:48:32.486Z,1004.59
2018-02-13T00:49:32.496Z,1004.57
2018-02-13T00:50:32.504Z,1004.56
2018-02-13T00:51:32.514Z,1004.55
2018-02-13T00:52:32.526Z,1004.57
2018-02-13T00:53:32.536Z,1004.54
2018-02-13T00:54:32.547Z,1004.57
2018-02-13T00:55:32.555Z,1004.59
2018-02-13T00:56:32.583Z,1004.62
2018-02-13T00:57:32.575Z,1004.67
2018-02-13T00:58:32.586Z,1004.61
2018-02-13T00:59:32.595Z,1004.64
2018-02-13T01:00:32.605Z,1004.64
2018-02-13T01:01:32.616Z,1004.66
2018-02-13T01:02:32.676Z,1004.67
2018-02-13T01:03:32.636Z,1004.65
2018-02-13T01:04:32.646Z,1004.7
2018-02-13T01:05:32.655Z,1004.67
2018-02-13T01:06:32.665Z,1004.66
2018-02-13T01:07:32.726Z,1004.68
2018-02-13T01:08:32.686Z,1004.7
2018-02-13T01:09:32.696Z,1004.66
2018-02-13T01:10:32.706Z,1004.66
2018-02-13T01:11:32.716Z,1004.64
2018-02-13T01:12:32.876Z,1004.64
2018-02-13T01:13:32.735Z,1004.7
2018-02-13T01:14:32.745Z,1004.69
2018-02-13T01:15:32.755Z,1004.68
2018-02-13T01:16:32.765Z,1004.66
2018-02-13T01:17:32.825Z,1004.65
2018-02-13T01:18:32.785Z,1004.65
2018-02-13T01:19:32.795Z,1004.66
2018-02-13T01:20:32.805Z,1004.69
2018-02-13T01:21:32.815Z,1004.66
2018-02-13T01:22:32.876Z,1004.63
2018-02-13T01:23:32.834Z,1004.71
2018-02-13T01:24:32.845Z,1004.66
2018-02-13T01:25:32.855Z,1004.65
2018-02-13T01:26:32.866Z,1004.67
2018-02-13T01:27:32.924Z,1004.66
2018-02-13T01:28:32.885Z,1004.66
2018-02-13T01:29:32.896Z,1004.66
2018-02-13T01:30:32.904Z,1004.63
2018-02-13T01:31:32.916Z,1004.64
2018-02-13T01:32:32.925Z,1004.62
2018-02-13T01:33:32.935Z,1004.66
2018-02-13T01:34:32.943Z,1004.63
2018-02-13T01:35:32.961Z,1004.6
2018-02-13T01:36:32.964Z,1004.67
2018-02-13T01:37:33.074Z,1004.67
2018-02-13T01:38:32.988Z,1004.62
2018-02-13T01:39:32.994Z,1004.63
2018-02-13T01:40:33.005Z,1004.64
2018-02-13T01:41:33.014Z,1004.63
2018-02-13T01:42:33.024Z,1004.64
2018-02-13T01:43:33.034Z,1004.63
2018-02-13T01:44:33.044Z,1004.65
2018-02-13T01:45:33.054Z,1004.67
2018-02-13T01:46:33.064Z,1004.68
2018-02-13T01:47:33.074Z,1004.66
2018-02-13T01:48:33.083Z,1004.67
2018-02-13T01:49:33.093Z,1004.68
2018-02-13T01:50:33.103Z,1004.71
2018-02-13T01:51:33.115Z,1004.7
2018-02-13T01:52:33.127Z,1004.71
2018-02-13T01:53:33.133Z,1004.68
2018-02-13T01:54:33.143Z,1004.66
2018-02-13T01:55:33.153Z,1004.68
2018-02-13T01:56:33.165Z,1004.7
2018-02-13T01:57:33.174Z,1004.67
2018-02-13T01:58:33.183Z,1004.68
2018-02-13T01:59:33.192Z,1004.69
2018-02-13T02:00:33.203Z,1004.66
2018-02-13T02:01:33.213Z,1004.72
2018-02-13T02:02:33.223Z,1004.75
2018-02-13T02:03:33.232Z,1004.7
2018-02-13T02:04:33.242Z,1004.69
2018-02-13T02:05:33.253Z,1004.72
2018-02-13T02:06:33.263Z,1004.72
2018-02-13T02:07:33.272Z,1004.72
2018-02-13T02:08:33.283Z,1004.7
2018-02-13T02:09:33.293Z,1004.71
2018-02-13T02:10:33.303Z,1004.7
2018-02-13T02:11:33.312Z,1004.7
2018-02-13T02:12:33.322Z,1004.69
2018-02-13T02:13:33.332Z,1004.72
2018-02-13T02:14:33.341Z,1004.72
2018-02-13T02:15:33.352Z,1004.75
2018-02-13T02:16:33.364Z,1004.73
2018-02-13T02:17:33.373Z,1004.77
2018-02-13T02:18:33.382Z,1004.72
2018-02-13T02:19:33.393Z,1004.72
2018-02-13T02:20:33.429Z,1004.73
2018-02-13T02:21:33.412Z,1004.74
2018-02-13T02:22:33.422Z,1004.7
2018-02-13T02:23:33.433Z,1004.75
2018-02-13T02:24:33.442Z,1004.73
2018-02-13T02:25:33.451Z,1004.71
2018-02-13T02:26:33.461Z,1004.74
2018-02-13T02:27:33.476Z,1004.73
2018-02-13T02:28:33.482Z,1004.75
2018-02-13T02:29:33.491Z,1004.73
2018-02-13T02:30:33.505Z,1004.74
2018-02-13T02:31:33.513Z,1004.7
2018-02-13T02:32:33.523Z,1004.74
2018-02-13T02:33:33.531Z,1004.76
2018-02-13T02:34:33.545Z,1004.78
2018-02-13T02:35:33.570Z,1004.77
2018-02-13T02:36:33.564Z,1004.74
2018-02-13T02:37:33.571Z,1004.75
2018-02-13T02:38:33.581Z,1004.76
2018-02-13T02:39:33.592Z,1004.75
2018-02-13T02:40:33.601Z,1004.78
2018-02-13T02:41:33.617Z,1004.79
2018-02-13T02:42:33.621Z,1004.77
2018-02-13T02:43:33.630Z,1004.75
2018-02-13T02:44:33.641Z,1004.74
2018-02-13T02:45:33.651Z,1004.74
2018-02-13T02:46:33.661Z,1004.7
2018-02-13T02:47:33.670Z,1004.72
2018-02-13T02:48:33.681Z,1004.77
2018-02-13T02:49:33.693Z,1004.72
2018-02-13T02:50:33.700Z,1004.73
2018-02-13T02:51:33.712Z,1004.71
2018-02-13T02:52:33.720Z,1004.7
2018-02-13T02:53:33.730Z,1004.72
2018-02-13T02:54:33.740Z,1004.74
2018-02-13T02:55:33.751Z,1004.68
2018-02-13T02:56:33.761Z,1004.69
2018-02-13T02:57:33.771Z,1004.72
2018-02-13T02:58:33.788Z,1004.7
2018-02-13T02:59:33.790Z,1004.74
2018-02-13T03:00:33.799Z,1004.71
2018-02-13T03:01:33.813Z,1004.69
2018-02-13T03:02:33.820Z,1004.7
2018-02-13T03:03:33.836Z,1004.73
2018-02-13T03:04:33.844Z,1004.68
2018-02-13T03:05:33.849Z,1004.69
2018-02-13T03:06:33.859Z,1004.71
2018-02-13T03:07:33.870Z,1004.7
2018-02-13T03:08:33.879Z,1004.71
2018-02-13T03:09:33.888Z,1004.66
2018-02-13T03:10:33.900Z,1004.7
2018-02-13T03:11:33.909Z,1004.71
2018-02-13T03:12:33.918Z,1004.69
2018-02-13T03:13:33.929Z,1004.68
2018-02-13T03:14:33.938Z,1004.65
2018-02-13T03:15:33.974Z,1004.62
2018-02-13T03:16:33.958Z,1004.66
2018-02-13T03:17:33.968Z,1004.63
2018-02-13T03:18:33.981Z,1004.64
2018-02-13T03:19:34.075Z,1004.64
2018-02-13T03:20:33.997Z,1004.63
2018-02-13T03:21:34.008Z,1004.61
2018-02-13T03:22:34.020Z,1004.62
2018-02-13T03:23:34.026Z,1004.61
2018-02-13T03:24:34.037Z,1004.63
2018-02-13T03:25:34.047Z,1004.64
2018-02-13T03:26:34.058Z,1004.59
2018-02-13T03:27:34.066Z,1004.61
2018-02-13T03:28:34.078Z,1004.58
2018-02-13T03:29:34.086Z,1004.64
2018-02-13T03:30:34.103Z,1004.61
2018-02-13T03:31:34.107Z,1004.62
2018-02-13T03:32:34.115Z,1004.61
2018-02-13T03:33:34.126Z,1004.61
2018-02-13T03:34:34.135Z,1004.64
2018-02-13T03:35:34.146Z,1004.65
2018-02-13T03:36:34.155Z,1004.63
2018-02-13T03:37:34.166Z,1004.65
2018-02-13T03:38:34.174Z,1004.65
2018-02-13T03:39:34.185Z,1004.63
2018-02-13T03:40:34.198Z,1004.62
2018-02-13T03:41:34.205Z,1004.61
2018-02-13T03:42:34.214Z,1004.64
2018-02-13T03:43:34.224Z,1004.64
2018-02-13T03:44:34.235Z,1004.61
2018-02-13T03:45:34.244Z,1004.63
2018-02-13T03:46:34.254Z,1004.62
2018-02-13T03:47:34.264Z,1004.66
2018-02-13T03:48:34.275Z,1004.63
2018-02-13T03:49:34.283Z,1004.66
2018-02-13T03:50:34.294Z,1004.64
2018-02-13T03:51:34.303Z,1004.63
2018-02-13T03:52:34.314Z,1004.64
2018-02-13T03:53:34.324Z,1004.68
2018-02-13T03:54:34.334Z,1004.62
2018-02-13T03:55:34.344Z,1004.62
2018-02-13T03:56:34.353Z,1004.65
2018-02-13T03:57:34.363Z,1004.63
2018-02-13T03:58:34.426Z,1004.59
2018-02-13T03:59:34.383Z,1004.61
2018-02-13T04:00:34.393Z,1004.62
2018-02-13T04:01:34.404Z,1004.59
2018-02-13T04:02:34.413Z,1004.57
2018-02-13T04:03:34.421Z,1004.57
2018-02-13T04:04:34.431Z,1004.6
2018-02-13T04:05:34.444Z,1004.61
2018-02-13T04:06:34.452Z,1004.59
2018-02-13T04:07:34.461Z,1004.61
2018-02-13T04:08:34.471Z,1004.62
2018-02-13T04:09:34.482Z,1004.6
2018-02-13T04:10:34.491Z,1004.65
2018-02-13T04:11:34.500Z,1004.63
2018-02-13T04:12:34.510Z,1004.64
2018-02-13T04:13:34.521Z,1004.64
2018-02-13T04:14:34.531Z,1004.62
2018-02-13T04:15:34.540Z,1004.59
2018-02-13T04:16:34.551Z,1004.61
2018-02-13T04:17:34.561Z,1004.63
2018-02-13T04:18:34.570Z,1004.66
2018-02-13T04:19:34.579Z,1004.6
2018-02-13T04:20:34.590Z,1004.64
2018-02-13T04:21:34.602Z,1004.66
2018-02-13T04:22:34.609Z,1004.62
2018-02-13T04:23:34.618Z,1004.62
2018-02-13T04:24:34.630Z,1004.61
2018-02-13T04:25:34.639Z,1004.65
2018-02-13T04:26:34.647Z,1004.61
2018-02-13T04:27:34.659Z,1004.62
2018-02-13T04:28:34.669Z,1004.61
2018-02-13T04:29:34.676Z,1004.64
2018-02-13T04:30:34.691Z,1004.7
2018-02-13T04:31:34.698Z,1004.65
2018-02-13T04:32:34.708Z,1004.68
2018-02-13T04:33:34.738Z,1004.63
2018-02-13T04:34:34.727Z,1004.61
2018-02-13T04:35:34.737Z,1004.65
2018-02-13T04:36:34.749Z,1004.61
2018-02-13T04:37:34.755Z,1004.61
2018-02-13T04:38:34.766Z,1004.63
2018-02-13T04:39:34.775Z,1004.64
2018-02-13T04:40:34.786Z,1004.64
2018-02-13T04:41:34.796Z,1004.63
2018-02-13T04:42:34.812Z,1004.62
2018-02-13T04:43:34.814Z,1004.6
2018-02-13T04:44:34.824Z,1004.62
2018-02-13T04:45:34.834Z,1004.62
2018-02-13T04:46:34.844Z,1004.59
2018-02-13T04:47:34.853Z,1004.58
2018-02-13T04:48:34.864Z,1004.65
2018-02-13T04:49:34.882Z,1004.6
2018-02-13T04:50:34.883Z,1004.6
2018-02-13T04:51:34.891Z,1004.53
2018-02-13T04:52:34.906Z,1004.56
2018-02-13T04:53:34.912Z,1004.55
2018-02-13T04:54:35.074Z,1004.53
2018-02-13T04:55:34.931Z,1004.54
2018-02-13T04:56:34.943Z,1004.5
2018-02-13T04:57:34.951Z,1004.54
2018-02-13T04:58:34.959Z,1004.51
2018-02-13T04:59:34.976Z,1004.52
2018-02-13T05:00:35.011Z,1004.55
2018-02-13T05:01:34.992Z,1004.51
2018-02-13T05:02:35.000Z,1004.57
2018-02-13T05:03:35.009Z,1004.55
2018-02-13T05:04:35.070Z,1004.54
2018-02-13T05:05:35.029Z,1004.53
2018-02-13T05:06:35.041Z,1004.52
2018-02-13T05:07:35.049Z,1004.54
2018-02-13T05:08:35.059Z,1004.54
2018-02-13T05:09:35.118Z,1004.51
2018-02-13T05:10:35.078Z,1004.53
2018-02-13T05:11:35.088Z,1004.55
2018-02-13T05:12:35.100Z,1004.53
2018-02-13T05:13:35.106Z,1004.51
2018-02-13T05:14:35.119Z,1004.45
2018-02-13T05:15:35.127Z,1004.52
2018-02-13T05:16:35.137Z,1004.49
2018-02-13T05:17:35.146Z,1004.5
2018-02-13T05:18:35.157Z,1004.45
2018-02-13T05:19:35.218Z,1004.5
2018-02-13T05:20:35.176Z,1004.49
2018-02-13T05:21:35.185Z,1004.5
2018-02-13T05:22:35.195Z,1004.49
2018-02-13T05:23:35.206Z,1004.49
2018-02-13T05:24:35.215Z,1004.48
2018-02-13T05:25:35.225Z,1004.51
2018-02-13T05:26:35.237Z,1004.46
2018-02-13T05:27:35.245Z,1004.48
2018-02-13T05:28:35.255Z,1004.45
2018-02-13T05:29:35.266Z,1004.46
2018-02-13T05:30:35.275Z,1004.47
2018-02-13T05:31:35.284Z,1004.45
2018-02-13T05:32:35.294Z,1004.48
2018-02-13T05:33:35.308Z,1004.53
2018-02-13T05:34:35.314Z,1004.54
2018-02-13T05:35:35.325Z,1004.55
2018-02-13T05:36:35.332Z,1004.55
2018-02-13T05:37:35.343Z,1004.55
2018-02-13T05:38:35.351Z,1004.58
2018-02-13T05:39:35.362Z,1004.53
2018-02-13T05:40:35.377Z,1004.52
2018-02-13T05:41:35.382Z,1004.55
2018-02-13T05:42:35.390Z,1004.54
2018-02-13T05:43:35.401Z,1004.57
2018-02-13T05:44:35.410Z,1004.58
2018-02-13T05:45:35.423Z,1004.58
2018-02-13T05:46:35.430Z,1004.61
2018-02-13T05:47:35.440Z,1004.57
2018-02-13T05:48:35.450Z,1004.62
2018-02-13T05:49:35.458Z,1004.59
2018-02-13T05:50:35.468Z,1004.6
2018-02-13T05:51:35.479Z,1004.59
2018-02-13T05:52:35.488Z,1004.59
2018-02-13T05:53:35.507Z,1004.59
2018-02-13T05:54:35.508Z,1004.59
2018-02-13T05:55:35.517Z,1004.61
2018-02-13T05:56:35.529Z,1004.59
2018-02-13T05:57:35.536Z,1004.55
2018-02-13T05:58:35.549Z,1004.56
2018-02-13T05:59:35.556Z,1004.54
2018-02-13T06:00:35.619Z,1004.62
2018-02-13T06:01:35.575Z,1004.6
2018-02-13T06:02:35.587Z,1004.6
2018-02-13T06:03:35.595Z,1004.61
2018-02-13T06:04:35.606Z,1004.59
2018-02-13T06:05:35.615Z,1004.61
2018-02-13T06:06:35.625Z,1004.62
2018-02-13T06:07:35.637Z,1004.6
2018-02-13T06:08:35.644Z,1004.62
2018-02-13T06:09:35.654Z,1004.61
2018-02-13T06:10:35.666Z,1004.63
2018-02-13T06:11:35.697Z,1004.58
2018-02-13T06:12:35.689Z,1004.59
2018-02-13T06:13:35.691Z,1004.61
2018-02-13T06:14:35.703Z,1004.66
2018-02-13T06:15:35.760Z,1004.61
2018-02-13T06:16:35.721Z,1004.6
2018-02-13T06:17:35.731Z,1004.67
2018-02-13T06:18:35.740Z,1004.65
2018-02-13T06:19:35.748Z,1004.67
2018-02-13T06:20:35.809Z,1004.65
2018-02-13T06:21:35.770Z,1004.67
2018-02-13T06:22:35.778Z,1004.6
2018-02-13T06:23:35.791Z,1004.62
2018-02-13T06:24:35.798Z,1004.66
2018-02-13T06:25:35.816Z,1004.66
2018-02-13T06:26:35.817Z,1004.67
2018-02-13T06:27:35.827Z,1004.66
2018-02-13T06:28:35.837Z,1004.68
2018-02-13T06:29:35.846Z,1004.68
2018-02-13T06:30:35.958Z,1004.69
2018-02-13T06:31:35.866Z,1004.67
2018-02-13T06:32:35.875Z,1004.7
2018-02-13T06:33:35.885Z,1004.64
2018-02-13T06:34:35.894Z,1004.62
2018-02-13T06:35:35.957Z,1004.62
2018-02-13T06:36:35.931Z,1004.63
2018-02-13T06:37:35.927Z,1004.64
2018-02-13T06:38:35.935Z,1004.65
2018-02-13T06:39:35.943Z,1004.66
2018-02-13T06:40:36.013Z,1004.68
2018-02-13T06:41:35.962Z,1004.63
2018-02-13T06:42:35.972Z,1004.67
2018-02-13T06:43:35.985Z,1004.69
2018-02-13T06:44:35.992Z,1004.68
2018-02-13T06:45:36.057Z,1004.67
2018-02-13T06:46:36.011Z,1004.7
2018-02-13T06:47:36.020Z,1004.7
2018-02-13T06:48:36.029Z,1004.69
2018-02-13T06:49:36.041Z,1004.71
2018-02-13T06:50:36.104Z,1004.72
2018-02-13T06:51:36.062Z,1004.71
2018-02-13T06:52:36.070Z,1004.69
2018-02-13T06:53:36.079Z,1004.72
2018-02-13T06:54:36.088Z,1004.74
2018-02-13T06:55:36.147Z,1004.71
2018-02-13T06:56:36.107Z,1004.74
2018-02-13T06:57:36.120Z,1004.72
2018-02-13T06:58:36.127Z,1004.75
2018-02-13T06:59:36.136Z,1004.73
2018-02-13T07:00:36.195Z,1004.71
2018-02-13T07:01:36.216Z,1004.76
2018-02-13T07:02:36.167Z,1004.77
2018-02-13T07:03:36.175Z,1004.74
2018-02-13T07:04:36.186Z,1004.75
2018-02-13T07:05:36.196Z,1004.77
2018-02-13T07:06:36.204Z,1004.76
2018-02-13T07:07:36.215Z,1004.78
2018-02-13T07:08:36.224Z,1004.77
2018-02-13T07:09:36.239Z,1004.81
2018-02-13T07:10:36.395Z,1004.77
2018-02-13T07:11:36.253Z,1004.78
2018-02-13T07:12:36.262Z,1004.8
2018-02-13T07:13:36.271Z,1004.83
2018-02-13T07:14:36.283Z,1004.83
2018-02-13T07:15:36.441Z,1004.79
2018-02-13T07:16:36.306Z,1004.8
2018-02-13T07:17:36.310Z,1004.78
2018-02-13T07:18:36.322Z,1004.78
2018-02-13T07:19:36.330Z,1004.76
2018-02-13T07:20:36.392Z,1004.78
2018-02-13T07:21:36.349Z,1004.8
2018-02-13T07:22:36.359Z,1004.8
2018-02-13T07:23:36.368Z,1004.81
2018-02-13T07:24:36.377Z,1004.8
2018-02-13T07:25:36.388Z,1004.8
2018-02-13T07:26:36.397Z,1004.79
2018-02-13T07:27:36.420Z,1004.8
2018-02-13T07:28:36.417Z,1004.81
2018-02-13T07:29:36.427Z,1004.79
2018-02-13T07:30:36.486Z,1004.78
2018-02-13T07:31:36.478Z,1004.82
2018-02-13T07:32:36.458Z,1004.8
2018-02-13T07:33:36.465Z,1004.84
2018-02-13T07:34:36.475Z,1004.84
2018-02-13T07:35:36.535Z,1004.83
2018-02-13T07:36:36.494Z,1004.83
2018-02-13T07:37:36.505Z,1004.83
2018-02-13T07:38:36.514Z,1004.82
2018-02-13T07:39:36.522Z,1004.85
2018-02-13T07:40:36.584Z,1004.84
2018-02-13T07:41:36.542Z,1004.83
2018-02-13T07:42:36.552Z,1004.84
2018-02-13T07:43:36.562Z,1004.83
2018-02-13T07:44:36.571Z,1004.85
2018-02-13T07:45:36.982Z,1004.85
2018-02-13T07:46:36.591Z,1004.85
2018-02-13T07:47:36.600Z,1004.87
2018-02-13T07:48:36.620Z,1004.87
2018-02-13T07:49:36.619Z,1004.83
2018-02-13T07:50:36.642Z,1004.85
2018-02-13T07:51:36.640Z,1004.87
2018-02-13T07:52:36.647Z,1004.88
2018-02-13T07:53:36.659Z,1004.85
2018-02-13T07:54:36.669Z,1004.89
2018-02-13T07:55:36.728Z,1004.88
2018-02-13T07:56:36.691Z,1004.85
2018-02-13T07:57:36.696Z,1004.83
2018-02-13T07:58:36.706Z,1004.87
2018-02-13T07:59:36.716Z,1004.84
2018-02-13T08:00:36.728Z,1004.88
2018-02-13T08:01:36.738Z,1004.85
2018-02-13T08:02:36.745Z,1004.9
2018-02-13T08:03:36.755Z,1004.82
2018-02-13T08:04:36.767Z,1004.84
2018-02-13T08:05:36.825Z,1004.88
2018-02-13T08:06:36.787Z,1004.86
2018-02-13T08:07:36.794Z,1004.87
2018-02-13T08:08:36.802Z,1004.88
2018-02-13T08:09:36.813Z,1004.9
2018-02-13T08:10:36.878Z,1004.86
2018-02-13T08:11:36.834Z,1004.88
2018-02-13T08:12:36.841Z,1004.86
2018-02-13T08:13:36.851Z,1004.89
2018-02-13T08:14:36.861Z,1004.88
2018-02-13T08:15:36.922Z,1004.9
2018-02-13T08:16:36.880Z,1004.86
2018-02-13T08:17:36.890Z,1004.9
2018-02-13T08:18:36.900Z,1004.89
2018-02-13T08:19:36.909Z,1004.85
2018-02-13T08:20:37.072Z,1004.91
2018-02-13T08:21:36.929Z,1004.87
2018-02-13T08:22:36.939Z,1004.91
2018-02-13T08:23:36.949Z,1004.89
2018-02-13T08:24:36.959Z,1004.9
2018-02-13T08:25:36.968Z,1004.83
2018-02-13T08:26:36.979Z,1004.89
2018-02-13T08:27:36.989Z,1004.9
2018-02-13T08:28:36.998Z,1004.86
2018-02-13T08:29:37.009Z,1004.9
2018-02-13T08:30:37.016Z,1004.89
2018-02-13T08:31:37.026Z,1004.9
2018-02-13T08:32:37.039Z,1004.91
2018-02-13T08:33:37.047Z,1004.87
2018-02-13T08:34:37.058Z,1004.87
2018-02-13T08:35:37.069Z,1004.87
2018-02-13T08:36:37.076Z,1004.86
2018-02-13T08:37:37.086Z,1004.88
2018-02-13T08:40:13.358Z,1004.85
2018-02-13T08:40:54.210Z,1004.88
2018-02-13T08:41:54.169Z,1004.92
2018-02-13T08:42:54.179Z,1004.85
2018-02-13T08:43:54.188Z,1004.86
2018-02-13T08:44:54.200Z,1004.85
2018-02-13T08:45:54.268Z,1004.84
2018-02-13T08:46:54.219Z,1004.87
2018-02-13T08:48:13.433Z,1004.84
2018-02-13T08:48:54.238Z,1004.83
2018-02-13T08:49:54.252Z,1004.82
2018-02-13T08:50:54.309Z,1004.82
2018-02-13T08:51:54.269Z,1004.8
2018-02-13T08:52:54.279Z,1004.76
2018-02-13T08:53:54.291Z,1004.81
2018-02-13T08:54:54.299Z,1004.79
2018-02-13T08:55:54.408Z,1004.84
2018-02-13T08:56:54.318Z,1004.81
2018-02-13T08:57:54.329Z,1004.8
2018-02-13T08:58:54.337Z,1004.79
2018-02-13T08:59:54.350Z,1004.77
2018-02-13T09:00:54.407Z,1004.77
2018-02-13T09:01:54.368Z,1004.74
2018-02-13T09:02:54.379Z,1004.79
2018-02-13T09:03:54.387Z,1004.78
2018-02-13T09:04:54.397Z,1004.74
2018-02-13T09:05:54.413Z,1004.75
2018-02-13T09:06:54.470Z,1004.76
2018-02-13T09:07:54.427Z,1004.76
2018-02-13T09:08:54.438Z,1004.76
2018-02-13T09:09:54.449Z,1004.72
2018-02-13T09:10:54.513Z,1004.8
2018-02-13T09:11:54.468Z,1004.75
2018-02-13T09:12:54.478Z,1004.76
2018-02-13T09:13:54.488Z,1004.82
2018-02-13T09:14:54.500Z,1004.77
2018-02-13T09:15:54.511Z,1004.83
2018-02-13T09:16:54.517Z,1004.8
2018-02-13T09:17:54.539Z,1004.78
2018-02-13T09:18:54.543Z,1004.75
2018-02-13T09:19:54.551Z,1004.74
2018-02-13T09:20:54.608Z,1004.81
2018-02-13T09:21:54.613Z,1004.74
2018-02-13T09:22:54.579Z,1004.73
2018-02-13T09:23:54.590Z,1004.74
2018-02-13T09:24:54.601Z,1004.7
2018-02-13T09:25:54.661Z,1004.69
2018-02-13T09:26:54.624Z,1004.74
2018-02-13T09:27:54.631Z,1004.72
2018-02-13T09:28:54.645Z,1004.68
2018-02-13T09:29:54.652Z,1004.66
2018-02-13T09:30:54.666Z,1004.64
2018-02-13T09:31:54.675Z,1004.63
2018-02-13T09:32:54.684Z,1004.65
2018-02-13T09:33:54.696Z,1004.64
2018-02-13T09:34:54.703Z,1004.64
2018-02-13T09:35:54.864Z,1004.64
2018-02-13T09:36:54.727Z,1004.62
2018-02-13T09:37:54.738Z,1004.61
2018-02-13T09:38:54.744Z,1004.63
2018-02-13T09:39:54.762Z,1004.61
2018-02-13T09:40:54.816Z,1004.61
2018-02-13T09:41:54.776Z,1004.65
2018-02-13T09:42:54.787Z,1004.62
2018-02-13T09:43:54.798Z,1004.64
2018-02-13T09:44:54.808Z,1004.68
2018-02-13T09:45:54.871Z,1004.65
2018-02-13T09:46:54.829Z,1004.67
2018-02-13T09:47:54.840Z,1004.63
2018-02-13T09:48:54.850Z,1004.61
2018-02-13T09:49:54.860Z,1004.66
2018-02-13T09:50:55.021Z,1004.61
2018-02-13T09:51:54.881Z,1004.67
2018-02-13T09:52:54.896Z,1004.62
2018-02-13T09:53:54.905Z,1004.66
2018-02-13T09:54:54.913Z,1004.65
2018-02-13T09:55:54.925Z,1004.6
2018-02-13T09:56:54.933Z,1004.63
2018-02-13T09:57:54.945Z,1004.64
2018-02-13T09:58:54.955Z,1004.63
2018-02-13T09:59:54.967Z,1004.6
2018-02-13T10:00:54.977Z,1004.61
2018-02-13T10:01:54.988Z,1004.58
2018-02-13T10:02:54.998Z,1004.58
2018-02-13T10:03:55.012Z,1004.62
2018-02-13T10:04:55.020Z,1004.62
2018-02-13T10:05:55.030Z,1004.64
2018-02-13T10:06:55.041Z,1004.64
2018-02-13T10:07:55.053Z,1004.62
2018-02-13T10:08:55.062Z,1004.6
2018-02-13T10:09:55.073Z,1004.63
2018-02-13T10:10:55.086Z,1004.64
2018-02-13T10:11:55.094Z,1004.59
2018-02-13T10:12:55.105Z,1004.62
2018-02-13T10:13:55.116Z,1004.59
2018-02-13T10:14:55.128Z,1004.59
2018-02-13T10:15:55.138Z,1004.6
2018-02-13T10:16:55.152Z,1004.59
2018-02-13T10:17:55.159Z,1004.57
2018-02-13T10:18:55.169Z,1004.55
2018-02-13T10:19:55.183Z,1004.53
2018-02-13T10:20:55.193Z,1004.51
2018-02-13T10:21:55.204Z,1004.5
2018-02-13T10:22:55.215Z,1004.5
2018-02-13T10:23:55.225Z,1004.52
2018-02-13T10:24:55.238Z,1004.47
2018-02-13T10:25:55.247Z,1004.46
2018-02-13T10:26:55.257Z,1004.52
2018-02-13T10:27:55.270Z,1004.51
2018-02-13T10:28:55.280Z,1004.5
2018-02-13T10:29:55.290Z,1004.46
2018-02-13T10:30:55.303Z,1004.49
2018-02-13T10:31:55.333Z,1004.42
2018-02-13T10:32:55.324Z,1004.44
2018-02-13T10:33:55.334Z,1004.43
2018-02-13T10:34:55.346Z,1004.43
2018-02-13T10:35:55.357Z,1004.44
2018-02-13T10:36:55.370Z,1004.42
2018-02-13T10:37:55.379Z,1004.39
2018-02-13T10:38:55.390Z,1004.44
2018-02-13T10:39:55.401Z,1004.4
2018-02-13T10:40:55.413Z,1004.43
2018-02-13T10:41:55.424Z,1004.4
2018-02-13T10:42:55.435Z,1004.4
2018-02-13T10:43:55.446Z,1004.34
2018-02-13T10:44:55.457Z,1004.4
2018-02-13T10:45:55.472Z,1004.41
2018-02-13T10:46:55.479Z,1004.4
2018-02-13T10:47:55.494Z,1004.38
2018-02-13T10:48:55.502Z,1004.42
2018-02-13T10:49:55.516Z,1004.38
2018-02-13T10:50:55.525Z,1004.33
2018-02-13T10:51:55.535Z,1004.35
2018-02-13T10:52:55.547Z,1004.32
2018-02-13T10:53:55.559Z,1004.32
2018-02-13T10:54:55.573Z,1004.33
2018-02-13T10:55:55.580Z,1004.28
2018-02-13T10:56:55.592Z,1004.3
2018-02-13T10:57:55.622Z,1004.28
2018-02-13T10:58:55.617Z,1004.28
2018-02-13T10:59:55.627Z,1004.28
2018-02-13T11:00:55.639Z,1004.24
2018-02-13T11:01:55.650Z,1004.2
2018-02-13T11:02:55.660Z,1004.23
2018-02-13T11:03:55.675Z,1004.24
2018-02-13T11:04:55.685Z,1004.25
2018-02-13T11:05:55.695Z,1004.28
2018-02-13T11:06:55.716Z,1004.26
2018-02-13T11:07:55.718Z,1004.28
2018-02-13T11:08:55.732Z,1004.18
2018-02-13T11:09:55.742Z,1004.21
2018-02-13T11:10:55.753Z,1004.21
2018-02-13T11:11:55.765Z,1004.2
2018-02-13T11:12:55.776Z,1004.22
2018-02-13T11:13:55.788Z,1004.21
2018-02-13T11:14:55.799Z,1004.16
2018-02-13T11:15:55.811Z,1004.17
2018-02-13T11:16:55.822Z,1004.16
2018-02-13T11:17:55.834Z,1004.18
2018-02-13T11:18:55.845Z,1004.18
2018-02-13T11:19:55.858Z,1004.16
2018-02-13T11:20:55.868Z,1004.16
2018-02-13T11:21:55.881Z,1004.14
2018-02-13T11:22:55.892Z,1004.1
2018-02-13T11:23:55.905Z,1004.12
2018-02-13T11:24:55.921Z,1004.05
2018-02-13T11:25:55.927Z,1004.05
2018-02-13T11:26:55.939Z,1004
2018-02-13T11:27:55.952Z,1003.97
2018-02-13T11:28:55.963Z,1003.97
2018-02-13T11:29:55.974Z,1003.95
2018-02-13T11:30:55.986Z,1003.95
2018-02-13T11:31:55.997Z,1003.92
2018-02-13T11:32:56.011Z,1003.88
2018-02-13T11:33:56.021Z,1003.89
2018-02-13T11:34:56.036Z,1003.92
2018-02-13T11:35:56.045Z,1003.94
2018-02-13T11:36:56.057Z,1003.91
2018-02-13T11:37:56.069Z,1003.88
2018-02-13T11:38:56.083Z,1003.83
2018-02-13T11:39:56.095Z,1003.87
2018-02-13T11:40:56.105Z,1003.86
2018-02-13T11:41:56.117Z,1003.88
2018-02-13T11:42:56.128Z,1003.82
2018-02-13T11:43:56.142Z,1003.83
2018-02-13T11:44:56.153Z,1003.81
2018-02-13T11:45:56.166Z,1003.81
2018-02-13T11:46:56.176Z,1003.82
2018-02-13T11:47:56.189Z,1003.75
2018-02-13T11:48:56.204Z,1003.76
2018-02-13T11:49:56.214Z,1003.78
2018-02-13T11:50:56.225Z,1003.79
2018-02-13T11:51:56.237Z,1003.75
2018-02-13T11:52:56.254Z,1003.76
2018-02-13T11:53:56.261Z,1003.74
2018-02-13T11:54:56.273Z,1003.7
2018-02-13T11:55:56.285Z,1003.66
2018-02-13T11:56:56.298Z,1003.7
2018-02-13T11:57:56.310Z,1003.66
2018-02-13T11:58:56.322Z,1003.7
2018-02-13T11:59:56.335Z,1003.67
2018-02-13T12:00:56.347Z,1003.63
2018-02-13T12:01:56.359Z,1003.64
2018-02-13T12:02:56.422Z,1003.61
2018-02-13T12:03:56.384Z,1003.57
2018-02-13T12:04:56.395Z,1003.58
2018-02-13T12:05:56.409Z,1003.57
2018-02-13T12:06:56.423Z,1003.59
2018-02-13T12:07:56.433Z,1003.56
2018-02-13T12:08:56.445Z,1003.57
2018-02-13T12:09:56.457Z,1003.51